Kansas City, Missouri
Traffic Map
Current Weather Conditions
Kansas City, Missouri
Overcast
Overcast
49°
Feels Like: 46°
Wind Chill: 46° Ceiling: 1400
Heat Index: 49° Visibility: 10mi
Dew Point: 43° Wind: 7mph
Humidity: 80% Direction: 230° (SW)
Pressure: 29.97in Gusts: 0mph
Raw Report DataKMKC 171903Z AUTO 23006KT 10SM OVC014 09/06 A2997 RMK AO2 T00940061
Traffic Incident Summary
Active as of:
Severity:
Category:
InformationThere was an issue retrieving the traffic information for this location. Please try a different location or try again shortly.
Advertisements